sensor_id;sensor_type;location;lat;lon;timestamp;pressure;altitude;pressure_sealevel;temperature;humidity
74466;BME280;62916;50.044;15.938;2023-03-14T00:00:29;97248.20;;;21.73;44.65
74466;BME280;62916;50.044;15.938;2023-03-14T00:03:00;97241.02;;;21.73;44.57
74466;BME280;62916;50.044;15.938;2023-03-14T00:05:30;97233.33;;;21.72;44.62
74466;BME280;62916;50.044;15.938;2023-03-14T00:08:01;97240.88;;;21.70;44.42
74466;BME280;62916;50.044;15.938;2023-03-14T00:10:32;97250.12;;;21.68;44.32
74466;BME280;62916;50.044;15.938;2023-03-14T00:13:03;97247.83;;;21.66;44.43
74466;BME280;62916;50.044;15.938;2023-03-14T00:15:35;97254.20;;;21.66;44.26
74466;BME280;62916;50.044;15.938;2023-03-14T00:18:06;97266.38;;;21.63;44.23
74466;BME280;62916;50.044;15.938;2023-03-14T00:20:37;97264.09;;;21.62;44.27
74466;BME280;62916;50.044;15.938;2023-03-14T00:23:07;97284.38;;;21.60;44.32
74466;BME280;62916;50.044;15.938;2023-03-14T00:25:38;97358.88;;;21.57;44.29
74466;BME280;62916;50.044;15.938;2023-03-14T00:28:09;97404.94;;;21.56;44.24
74466;BME280;62916;50.044;15.938;2023-03-14T00:30:40;97403.52;;;21.54;44.53
74466;BME280;62916;50.044;15.938;2023-03-14T00:33:10;97425.52;;;21.50;44.65
74466;BME280;62916;50.044;15.938;2023-03-14T00:35:41;97459.95;;;21.48;44.66
74466;BME280;62916;50.044;15.938;2023-03-14T00:38:12;97452.13;;;21.48;44.71
74466;BME280;62916;50.044;15.938;2023-03-14T00:40:43;97443.08;;;21.46;45.00
74466;BME280;62916;50.044;15.938;2023-03-14T00:43:14;97451.30;;;21.43;45.12
74466;BME280;62916;50.044;15.938;2023-03-14T00:45:45;97459.58;;;21.39;45.02
74466;BME280;62916;50.044;15.938;2023-03-14T00:48:16;97468.45;;;21.39;45.28
74466;BME280;62916;50.044;15.938;2023-03-14T00:50:47;97471.91;;;21.39;45.32
74466;BME280;62916;50.044;15.938;2023-03-14T00:53:18;97474.50;;;21.36;45.20
74466;BME280;62916;50.044;15.938;2023-03-14T00:55:49;97475.90;;;21.34;45.39
74466;BME280;62916;50.044;15.938;2023-03-14T00:58:20;97475.62;;;21.33;45.57
74466;BME280;62916;50.044;15.938;2023-03-14T01:00:51;97470.77;;;21.32;45.51
74466;BME280;62916;50.044;15.938;2023-03-14T01:03:22;97490.45;;;21.33;45.55
74466;BME280;62916;50.044;15.938;2023-03-14T01:05:53;97519.16;;;21.34;45.57
74466;BME280;62916;50.044;15.938;2023-03-14T01:08:24;97531.41;;;21.34;45.68
74466;BME280;62916;50.044;15.938;2023-03-14T01:10:55;97527.93;;;21.33;45.62
74466;BME280;62916;50.044;15.938;2023-03-14T01:13:26;97518.57;;;21.36;45.63
74466;BME280;62916;50.044;15.938;2023-03-14T01:16:00;97513.02;;;21.37;45.64
74466;BME280;62916;50.044;15.938;2023-03-14T01:18:31;97511.40;;;21.36;45.90
74466;BME280;62916;50.044;15.938;2023-03-14T01:21:02;97521.72;;;21.36;45.69
74466;BME280;62916;50.044;15.938;2023-03-14T01:23:33;97520.59;;;21.36;45.56
74466;BME280;62916;50.044;15.938;2023-03-14T01:26:04;97517.91;;;21.35;45.83
74466;BME280;62916;50.044;15.938;2023-03-14T01:28:35;97510.17;;;21.28;45.81
74466;BME280;62916;50.044;15.938;2023-03-14T01:31:08;97519.52;;;21.25;46.21
74466;BME280;62916;50.044;15.938;2023-03-14T01:33:40;97514.70;;;21.23;46.26
74466;BME280;62916;50.044;15.938;2023-03-14T01:36:12;97509.79;;;21.20;46.21
74466;BME280;62916;50.044;15.938;2023-03-14T01:38:43;97498.45;;;21.18;46.32
74466;BME280;62916;50.044;15.938;2023-03-14T01:41:15;97488.54;;;21.21;46.43
74466;BME280;62916;50.044;15.938;2023-03-14T01:43:47;97463.88;;;21.23;46.24
74466;BME280;62916;50.044;15.938;2023-03-14T01:46:39;97439.44;;;21.25;46.13
74466;BME280;62916;50.044;15.938;2023-03-14T01:49:24;97426.15;;;21.25;46.14
74466;BME280;62916;50.044;15.938;2023-03-14T01:51:59;97415.09;;;21.25;46.14
74466;BME280;62916;50.044;15.938;2023-03-14T01:54:34;97402.73;;;21.26;46.29
74466;BME280;62916;50.044;15.938;2023-03-14T01:57:10;97384.83;;;21.30;46.11
74466;BME280;62916;50.044;15.938;2023-03-14T01:59:45;97370.63;;;21.32;46.13
74466;BME280;62916;50.044;15.938;2023-03-14T02:02:17;97361.01;;;21.31;46.30
74466;BME280;62916;50.044;15.938;2023-03-14T02:04:49;97352.81;;;21.32;45.94
74466;BME280;62916;50.044;15.938;2023-03-14T02:07:22;97353.71;;;21.32;45.69
74466;BME280;62916;50.044;15.938;2023-03-14T02:09:57;97346.55;;;21.29;45.93
74466;BME280;62916;50.044;15.938;2023-03-14T02:12:29;97345.67;;;21.29;45.64
74466;BME280;62916;50.044;15.938;2023-03-14T02:15:00;97337.73;;;21.31;45.56
74466;BME280;62916;50.044;15.938;2023-03-14T02:17:31;97338.20;;;21.31;45.52
74466;BME280;62916;50.044;15.938;2023-03-14T02:20:13;97331.84;;;21.31;45.40
74466;BME280;62916;50.044;15.938;2023-03-14T02:22:48;97331.88;;;21.28;45.27
74466;BME280;62916;50.044;15.938;2023-03-14T02:25:24;97332.71;;;21.26;45.42
74466;BME280;62916;50.044;15.938;2023-03-14T02:27:57;97330.96;;;21.24;45.27
74466;BME280;62916;50.044;15.938;2023-03-14T02:30:30;97320.83;;;21.21;45.21
74466;BME280;62916;50.044;15.938;2023-03-14T02:33:05;97303.79;;;21.19;45.14
74466;BME280;62916;50.044;15.938;2023-03-14T02:35:41;97294.98;;;21.19;45.00
74466;BME280;62916;50.044;15.938;2023-03-14T02:38:17;97296.98;;;21.18;45.02
74466;BME280;62916;50.044;15.938;2023-03-14T02:40:50;97297.50;;;21.16;44.94
74466;BME280;62916;50.044;15.938;2023-03-14T02:43:21;97297.44;;;21.17;44.97
74466;BME280;62916;50.044;15.938;2023-03-14T02:45:52;97289.70;;;21.13;44.85
74466;BME280;62916;50.044;15.938;2023-03-14T02:48:26;97284.16;;;21.11;44.73
74466;BME280;62916;50.044;15.938;2023-03-14T02:50:56;97275.85;;;21.10;44.76
74466;BME280;62916;50.044;15.938;2023-03-14T02:53:28;97280.10;;;21.06;44.70
74466;BME280;62916;50.044;15.938;2023-03-14T02:56:01;97282.23;;;21.04;44.78
74466;BME280;62916;50.044;15.938;2023-03-14T02:58:32;97283.11;;;21.01;44.67
74466;BME280;62916;50.044;15.938;2023-03-14T03:01:03;97286.68;;;20.99;44.74
74466;BME280;62916;50.044;15.938;2023-03-14T03:03:34;97291.59;;;20.98;44.56
74466;BME280;62916;50.044;15.938;2023-03-14T03:06:06;97291.71;;;20.96;44.51
74466;BME280;62916;50.044;15.938;2023-03-14T03:08:37;97288.54;;;20.95;44.35
74466;BME280;62916;50.044;15.938;2023-03-14T03:11:09;97282.56;;;20.90;44.49
74466;BME280;62916;50.044;15.938;2023-03-14T03:13:39;97266.48;;;20.88;44.53
74466;BME280;62916;50.044;15.938;2023-03-14T03:16:11;97254.23;;;20.87;44.47
74466;BME280;62916;50.044;15.938;2023-03-14T03:18:43;97246.10;;;20.88;44.53
74466;BME280;62916;50.044;15.938;2023-03-14T03:21:14;97248.38;;;20.88;44.51
74466;BME280;62916;50.044;15.938;2023-03-14T03:23:45;97254.23;;;20.88;44.46
74466;BME280;62916;50.044;15.938;2023-03-14T03:26:16;97253.67;;;20.88;44.48
74466;BME280;62916;50.044;15.938;2023-03-14T03:28:46;97250.38;;;20.87;44.30
74466;BME280;62916;50.044;15.938;2023-03-14T03:31:17;97236.63;;;20.84;44.40
74466;BME280;62916;50.044;15.938;2023-03-14T03:33:48;97227.65;;;20.83;44.45
74466;BME280;62916;50.044;15.938;2023-03-14T03:36:22;97219.69;;;20.80;44.44
74466;BME280;62916;50.044;15.938;2023-03-14T03:38:51;97217.21;;;20.78;44.49
74466;BME280;62916;50.044;15.938;2023-03-14T03:41:22;97222.61;;;20.74;44.63
74466;BME280;62916;50.044;15.938;2023-03-14T03:43:53;97223.84;;;20.75;44.73
74466;BME280;62916;50.044;15.938;2023-03-14T03:46:24;97222.12;;;20.73;44.67
74466;BME280;62916;50.044;15.938;2023-03-14T03:48:58;97221.58;;;20.74;44.84
74466;BME280;62916;50.044;15.938;2023-03-14T03:51:29;97218.00;;;20.77;44.75
74466;BME280;62916;50.044;15.938;2023-03-14T03:54:00;97209.30;;;20.80;44.69
74466;BME280;62916;50.044;15.938;2023-03-14T03:56:31;97204.19;;;20.81;44.79
74466;BME280;62916;50.044;15.938;2023-03-14T03:59:02;97201.42;;;20.84;44.85
74466;BME280;62916;50.044;15.938;2023-03-14T04:01:33;97203.92;;;20.84;44.85
74466;BME280;62916;50.044;15.938;2023-03-14T04:04:04;97221.85;;;20.86;45.01
74466;BME280;62916;50.044;15.938;2023-03-14T04:06:35;97217.63;;;20.89;45.18
74466;BME280;62916;50.044;15.938;2023-03-14T04:09:07;97200.85;;;20.94;45.06
74466;BME280;62916;50.044;15.938;2023-03-14T04:11:38;97203.56;;;21.01;45.03
74466;BME280;62916;50.044;15.938;2023-03-14T04:14:09;97209.45;;;21.05;45.11
74466;BME280;62916;50.044;15.938;2023-03-14T04:16:40;97216.23;;;21.10;45.13
74466;BME280;62916;50.044;15.938;2023-03-14T04:19:10;97212.03;;;21.16;45.03
74466;BME280;62916;50.044;15.938;2023-03-14T04:21:41;97211.66;;;21.17;45.20
74466;BME280;62916;50.044;15.938;2023-03-14T04:24:14;97218.39;;;21.19;45.19
74466;BME280;62916;50.044;15.938;2023-03-14T04:26:45;97223.61;;;21.21;45.28
74466;BME280;62916;50.044;15.938;2023-03-14T04:29:16;97219.55;;;21.23;45.34
74466;BME280;62916;50.044;15.938;2023-03-14T04:31:47;97212.05;;;21.26;45.17
74466;BME280;62916;50.044;15.938;2023-03-14T04:34:18;97192.65;;;21.27;45.23
74466;BME280;62916;50.044;15.938;2023-03-14T04:36:49;97168.42;;;21.29;45.29
74466;BME280;62916;50.044;15.938;2023-03-14T04:39:19;97153.91;;;21.32;45.54
74466;BME280;62916;50.044;15.938;2023-03-14T04:41:50;97168.83;;;21.37;45.53
74466;BME280;62916;50.044;15.938;2023-03-14T04:44:21;97158.39;;;21.39;45.63
74466;BME280;62916;50.044;15.938;2023-03-14T04:46:52;97137.56;;;21.41;45.56
74466;BME280;62916;50.044;15.938;2023-03-14T04:49:24;97121.91;;;21.44;45.54
74466;BME280;62916;50.044;15.938;2023-03-14T04:51:54;97132.91;;;21.46;45.68
74466;BME280;62916;50.044;15.938;2023-03-14T04:54:26;97163.20;;;21.45;45.64
74466;BME280;62916;50.044;15.938;2023-03-14T04:56:59;97184.11;;;21.48;45.77
74466;BME280;62916;50.044;15.938;2023-03-14T04:59:30;97197.48;;;21.48;45.87
74466;BME280;62916;50.044;15.938;2023-03-14T05:02:01;97208.29;;;21.49;45.96
74466;BME280;62916;50.044;15.938;2023-03-14T05:04:32;97209.73;;;21.52;45.75
74466;BME280;62916;50.044;15.938;2023-03-14T05:07:03;97197.74;;;21.56;45.62
74466;BME280;62916;50.044;15.938;2023-03-14T05:09:34;97198.08;;;21.61;45.80
74466;BME280;62916;50.044;15.938;2023-03-14T05:12:05;97200.70;;;21.63;45.60
74466;BME280;62916;50.044;15.938;2023-03-14T05:14:37;97199.77;;;21.65;45.54
74466;BME280;62916;50.044;15.938;2023-03-14T05:17:09;97194.70;;;21.65;45.48
74466;BME280;62916;50.044;15.938;2023-03-14T05:19:40;97186.98;;;21.68;45.58
74466;BME280;62916;50.044;15.938;2023-03-14T05:22:11;97188.29;;;21.69;45.59
74466;BME280;62916;50.044;15.938;2023-03-14T05:24:42;97185.98;;;21.70;45.54
74466;BME280;62916;50.044;15.938;2023-03-14T05:27:13;97174.92;;;21.69;45.74
74466;BME280;62916;50.044;15.938;2023-03-14T05:29:44;97183.16;;;21.71;45.62
74466;BME280;62916;50.044;15.938;2023-03-14T05:32:15;97191.30;;;21.70;45.56
74466;BME280;62916;50.044;15.938;2023-03-14T05:34:46;97191.52;;;21.69;45.67
74466;BME280;62916;50.044;15.938;2023-03-14T05:37:17;97187.95;;;21.67;45.62
74466;BME280;62916;50.044;15.938;2023-03-14T05:39:48;97174.48;;;21.67;45.53
74466;BME280;62916;50.044;15.938;2023-03-14T05:42:19;97168.68;;;21.67;45.52
74466;BME280;62916;50.044;15.938;2023-03-14T05:44:50;97171.23;;;21.65;45.53
74466;BME280;62916;50.044;15.938;2023-03-14T05:47:21;97171.85;;;21.64;45.39
74466;BME280;62916;50.044;15.938;2023-03-14T05:49:52;97171.40;;;21.61;45.50
74466;BME280;62916;50.044;15.938;2023-03-14T05:52:23;97173.88;;;21.61;45.44
74466;BME280;62916;50.044;15.938;2023-03-14T05:54:54;97175.63;;;21.59;45.55
74466;BME280;62916;50.044;15.938;2023-03-14T05:57:25;97171.35;;;21.59;45.37
74466;BME280;62916;50.044;15.938;2023-03-14T05:59:56;97175.95;;;21.59;45.33
74466;BME280;62916;50.044;15.938;2023-03-14T06:02:27;97173.91;;;21.58;45.27
74466;BME280;62916;50.044;15.938;2023-03-14T06:04:58;97174.30;;;21.57;45.44
74466;BME280;62916;50.044;15.938;2023-03-14T06:07:28;97167.83;;;21.56;45.20
74466;BME280;62916;50.044;15.938;2023-03-14T06:09:59;97176.91;;;21.55;45.21
74466;BME280;62916;50.044;15.938;2023-03-14T06:12:30;97189.56;;;21.54;45.24
74466;BME280;62916;50.044;15.938;2023-03-14T06:15:01;97194.67;;;21.56;45.07
74466;BME280;62916;50.044;15.938;2023-03-14T06:17:32;97190.10;;;21.58;45.34
74466;BME280;62916;50.044;15.938;2023-03-14T06:20:03;97191.50;;;21.59;45.20
74466;BME280;62916;50.044;15.938;2023-03-14T06:22:34;97196.75;;;21.56;45.16
74466;BME280;62916;50.044;15.938;2023-03-14T06:25:06;97199.02;;;21.56;45.27
74466;BME280;62916;50.044;15.938;2023-03-14T06:27:37;97197.15;;;21.55;45.08
74466;BME280;62916;50.044;15.938;2023-03-14T06:30:10;97200.76;;;21.54;44.98
74466;BME280;62916;50.044;15.938;2023-03-14T06:32:41;97209.57;;;21.55;45.15
74466;BME280;62916;50.044;15.938;2023-03-14T06:35:12;97209.79;;;21.54;45.01
74466;BME280;62916;50.044;15.938;2023-03-14T06:37:43;97203.71;;;21.53;45.01
74466;BME280;62916;50.044;15.938;2023-03-14T06:40:14;97202.33;;;21.52;45.07
74466;BME280;62916;50.044;15.938;2023-03-14T06:42:47;97207.20;;;21.51;44.97
74466;BME280;62916;50.044;15.938;2023-03-14T06:45:18;97215.31;;;21.49;44.81
74466;BME280;62916;50.044;15.938;2023-03-14T06:47:49;97223.68;;;21.48;45.15
74466;BME280;62916;50.044;15.938;2023-03-14T06:50:20;97218.51;;;21.47;45.03
74466;BME280;62916;50.044;15.938;2023-03-14T06:52:52;97210.04;;;21.47;45.11
74466;BME280;62916;50.044;15.938;2023-03-14T06:55:22;97205.89;;;21.45;44.87
74466;BME280;62916;50.044;15.938;2023-03-14T06:57:54;97206.06;;;21.42;44.82
74466;BME280;62916;50.044;15.938;2023-03-14T07:00:25;97195.95;;;21.39;45.04
74466;BME280;62916;50.044;15.938;2023-03-14T07:02:56;97192.13;;;21.38;45.05
74466;BME280;62916;50.044;15.938;2023-03-14T07:05:27;97194.17;;;21.35;45.14
74466;BME280;62916;50.044;15.938;2023-03-14T07:07:58;97202.13;;;21.34;45.29
74466;BME280;62916;50.044;15.938;2023-03-14T07:10:29;97205.63;;;21.32;45.20
74466;BME280;62916;50.044;15.938;2023-03-14T07:12:59;97204.57;;;21.27;44.98
74466;BME280;62916;50.044;15.938;2023-03-14T07:15:30;97210.70;;;21.28;45.20
74466;BME280;62916;50.044;15.938;2023-03-14T07:18:01;97213.20;;;21.28;45.29
74466;BME280;62916;50.044;15.938;2023-03-14T07:20:32;97214.98;;;21.28;45.29
74466;BME280;62916;50.044;15.938;2023-03-14T07:23:03;97212.20;;;21.27;45.07
74466;BME280;62916;50.044;15.938;2023-03-14T07:25:34;97212.06;;;21.28;45.14
74466;BME280;62916;50.044;15.938;2023-03-14T07:28:04;97220.13;;;21.28;45.09
74466;BME280;62916;50.044;15.938;2023-03-14T07:30:35;97230.45;;;21.28;45.10
74466;BME280;62916;50.044;15.938;2023-03-14T07:33:06;97234.30;;;21.32;44.79
74466;BME280;62916;50.044;15.938;2023-03-14T07:35:40;97238.62;;;21.34;44.88
74466;BME280;62916;50.044;15.938;2023-03-14T07:38:10;97229.21;;;21.35;44.93
74466;BME280;62916;50.044;15.938;2023-03-14T07:40:41;97228.33;;;21.35;44.63
74466;BME280;62916;50.044;15.938;2023-03-14T07:43:12;97234.59;;;21.34;44.75
74466;BME280;62916;50.044;15.938;2023-03-14T07:45:46;97229.18;;;21.33;44.58
74466;BME280;62916;50.044;15.938;2023-03-14T07:48:20;97224.58;;;21.33;44.44
74466;BME280;62916;50.044;15.938;2023-03-14T07:50:52;97227.88;;;21.32;44.37
74466;BME280;62916;50.044;15.938;2023-03-14T07:53:24;97229.29;;;21.31;44.29
74466;BME280;62916;50.044;15.938;2023-03-14T07:55:55;97229.17;;;21.29;44.48
74466;BME280;62916;50.044;15.938;2023-03-14T07:58:26;97236.08;;;21.28;44.27
74466;BME280;62916;50.044;15.938;2023-03-14T08:00:59;97238.61;;;21.26;44.20
74466;BME280;62916;50.044;15.938;2023-03-14T08:03:30;97239.43;;;21.27;44.17
74466;BME280;62916;50.044;15.938;2023-03-14T08:06:01;97237.85;;;21.24;44.15
74466;BME280;62916;50.044;15.938;2023-03-14T08:08:32;97238.56;;;21.23;44.17
74466;BME280;62916;50.044;15.938;2023-03-14T08:11:06;97232.84;;;21.23;44.13
74466;BME280;62916;50.044;15.938;2023-03-14T08:13:39;97234.03;;;21.23;44.04
74466;BME280;62916;50.044;15.938;2023-03-14T08:16:10;97232.89;;;21.22;44.18
74466;BME280;62916;50.044;15.938;2023-03-14T08:18:41;97232.89;;;21.22;44.13
74466;BME280;62916;50.044;15.938;2023-03-14T08:21:12;97229.90;;;21.22;44.31
74466;BME280;62916;50.044;15.938;2023-03-14T08:23:43;97222.09;;;21.19;44.15
74466;BME280;62916;50.044;15.938;2023-03-14T08:26:14;97216.10;;;21.17;44.16
74466;BME280;62916;50.044;15.938;2023-03-14T08:28:45;97229.38;;;21.17;44.28
74466;BME280;62916;50.044;15.938;2023-03-14T08:31:15;97229.79;;;21.17;44.22
74466;BME280;62916;50.044;15.938;2023-03-14T08:33:46;97228.83;;;21.18;44.25
74466;BME280;62916;50.044;15.938;2023-03-14T08:36:17;97223.55;;;21.16;44.14
74466;BME280;62916;50.044;15.938;2023-03-14T08:38:52;97224.34;;;21.15;44.33
74466;BME280;62916;50.044;15.938;2023-03-14T08:41:24;97228.15;;;21.13;44.29
74466;BME280;62916;50.044;15.938;2023-03-14T08:43:55;97231.62;;;21.13;44.32
74466;BME280;62916;50.044;15.938;2023-03-14T08:46:26;97241.59;;;21.12;44.40
74466;BME280;62916;50.044;15.938;2023-03-14T08:48:57;97244.91;;;21.10;44.23
74466;BME280;62916;50.044;15.938;2023-03-14T08:51:28;97248.40;;;21.07;44.05
74466;BME280;62916;50.044;15.938;2023-03-14T08:53:59;97245.88;;;21.02;44.16
74466;BME280;62916;50.044;15.938;2023-03-14T08:56:30;97240.84;;;20.97;44.11
74466;BME280;62916;50.044;15.938;2023-03-14T08:59:01;97249.20;;;20.96;44.16
74466;BME280;62916;50.044;15.938;2023-03-14T09:01:31;97251.39;;;20.93;44.30
74466;BME280;62916;50.044;15.938;2023-03-14T09:04:02;97260.71;;;20.92;44.36
74466;BME280;62916;50.044;15.938;2023-03-14T09:06:33;97266.52;;;20.90;44.48
74466;BME280;62916;50.044;15.938;2023-03-14T09:09:04;97270.30;;;20.89;44.60
74466;BME280;62916;50.044;15.938;2023-03-14T09:11:35;97261.13;;;20.86;44.69
74466;BME280;62916;50.044;15.938;2023-03-14T09:14:06;97255.55;;;20.85;44.84
74466;BME280;62916;50.044;15.938;2023-03-14T09:16:37;97251.98;;;20.84;44.78
74466;BME280;62916;50.044;15.938;2023-03-14T09:19:08;97244.79;;;20.86;44.94
74466;BME280;62916;50.044;15.938;2023-03-14T09:21:39;97240.92;;;20.86;45.11
74466;BME280;62916;50.044;15.938;2023-03-14T09:24:10;97243.27;;;20.87;45.12
74466;BME280;62916;50.044;15.938;2023-03-14T09:26:41;97245.25;;;20.89;45.02
74466;BME280;62916;50.044;15.938;2023-03-14T09:29:12;97251.65;;;20.91;45.00
74466;BME280;62916;50.044;15.938;2023-03-14T09:31:43;97254.65;;;20.91;45.13
74466;BME280;62916;50.044;15.938;2023-03-14T09:34:13;97259.39;;;20.94;45.09
74466;BME280;62916;50.044;15.938;2023-03-14T09:36:44;97258.48;;;20.97;45.18
74466;BME280;62916;50.044;15.938;2023-03-14T09:39:15;97255.52;;;20.98;45.29
74466;BME280;62916;50.044;15.938;2023-03-14T09:41:49;97254.61;;;21.01;45.24
74466;BME280;62916;50.044;15.938;2023-03-14T09:44:24;97257.63;;;21.02;45.01
74466;BME280;62916;50.044;15.938;2023-03-14T09:46:58;97261.70;;;21.04;45.28
74466;BME280;62916;50.044;15.938;2023-03-14T09:49:33;97269.01;;;21.06;45.22
74466;BME280;62916;50.044;15.938;2023-03-14T09:52:11;97271.77;;;21.09;45.25
74466;BME280;62916;50.044;15.938;2023-03-14T09:54:47;97274.65;;;21.11;45.10
74466;BME280;62916;50.044;15.938;2023-03-14T09:57:21;97277.05;;;21.13;45.01
74466;BME280;62916;50.044;15.938;2023-03-14T09:59:56;97278.78;;;21.15;44.79
74466;BME280;62916;50.044;15.938;2023-03-14T10:02:34;97279.92;;;21.16;45.10
74466;BME280;62916;50.044;15.938;2023-03-14T10:05:13;97275.04;;;21.17;44.89
74466;BME280;62916;50.044;15.938;2023-03-14T10:07:44;97272.76;;;21.18;44.87
74466;BME280;62916;50.044;15.938;2023-03-14T10:10:19;97269.48;;;21.20;44.78
74466;BME280;62916;50.044;15.938;2023-03-14T10:12:56;97267.83;;;21.21;44.81
74466;BME280;62916;50.044;15.938;2023-03-14T10:15:29;97261.25;;;21.22;44.66
74466;BME280;62916;50.044;15.938;2023-03-14T10:18:03;97258.73;;;21.24;44.79
74466;BME280;62916;50.044;15.938;2023-03-14T10:20:40;97255.82;;;21.24;44.62
74466;BME280;62916;50.044;15.938;2023-03-14T10:23:24;97250.64;;;21.27;44.66
74466;BME280;62916;50.044;15.938;2023-03-14T10:26:07;97239.71;;;21.28;44.76
74466;BME280;62916;50.044;15.938;2023-03-14T10:28:42;97236.13;;;21.31;44.64
74466;BME280;62916;50.044;15.938;2023-03-14T10:31:14;97235.91;;;21.32;44.65
74466;BME280;62916;50.044;15.938;2023-03-14T10:33:59;97238.90;;;21.35;44.65
74466;BME280;62916;50.044;15.938;2023-03-14T10:36:31;97236.52;;;21.38;44.54
74466;BME280;62916;50.044;15.938;2023-03-14T10:39:24;97237.41;;;21.38;44.48
74466;BME280;62916;50.044;15.938;2023-03-14T10:42:01;97238.56;;;21.39;44.41
74466;BME280;62916;50.044;15.938;2023-03-14T10:44:35;97241.98;;;21.41;44.52
74466;BME280;62916;50.044;15.938;2023-03-14T10:47:13;97243.27;;;21.41;44.49
74466;BME280;62916;50.044;15.938;2023-03-14T10:49:46;97248.42;;;21.41;44.40
74466;BME280;62916;50.044;15.938;2023-03-14T10:52:22;97246.77;;;21.42;44.37
74466;BME280;62916;50.044;15.938;2023-03-14T10:55:14;97245.08;;;21.42;44.34
74466;BME280;62916;50.044;15.938;2023-03-14T10:57:45;97245.86;;;21.45;44.34
74466;BME280;62916;50.044;15.938;2023-03-14T11:00:19;97241.86;;;21.46;44.27
74466;BME280;62916;50.044;15.938;2023-03-14T11:03:02;97237.95;;;21.44;44.32
74466;BME280;62916;50.044;15.938;2023-03-14T11:05:40;97235.00;;;21.46;44.33
74466;BME280;62916;50.044;15.938;2023-03-14T11:08:20;97235.41;;;21.46;44.06
74466;BME280;62916;50.044;15.938;2023-03-14T11:10:57;97237.27;;;21.46;43.97
74466;BME280;62916;50.044;15.938;2023-03-14T11:13:37;97234.30;;;21.48;43.80
74466;BME280;62916;50.044;15.938;2023-03-14T11:16:16;97228.91;;;21.48;44.07
74466;BME280;62916;50.044;15.938;2023-03-14T11:19:06;97228.61;;;21.49;43.94
74466;BME280;62916;50.044;15.938;2023-03-14T11:21:49;97221.52;;;21.48;43.85
74466;BME280;62916;50.044;15.938;2023-03-14T11:24:52;97220.13;;;21.48;43.87
74466;BME280;62916;50.044;15.938;2023-03-14T11:27:34;97224.14;;;21.46;43.79
74466;BME280;62916;50.044;15.938;2023-03-14T11:30:13;97227.90;;;21.45;43.83
74466;BME280;62916;50.044;15.938;2023-03-14T11:32:48;97233.77;;;21.45;43.71
74466;BME280;62916;50.044;15.938;2023-03-14T11:35:26;97234.69;;;21.43;43.83
74466;BME280;62916;50.044;15.938;2023-03-14T11:38:07;97235.42;;;21.43;43.91
74466;BME280;62916;50.044;15.938;2023-03-14T11:40:41;97231.16;;;21.44;43.63
74466;BME280;62916;50.044;15.938;2023-03-14T11:43:15;97224.92;;;21.42;43.73
74466;BME280;62916;50.044;15.938;2023-03-14T11:45:51;97226.48;;;21.40;43.57
74466;BME280;62916;50.044;15.938;2023-03-14T11:48:32;97226.21;;;21.38;43.67
74466;BME280;62916;50.044;15.938;2023-03-14T11:51:11;97226.49;;;21.36;43.53
74466;BME280;62916;50.044;15.938;2023-03-14T11:53:50;97225.39;;;21.33;43.72
74466;BME280;62916;50.044;15.938;2023-03-14T11:56:31;97228.64;;;21.31;43.76
74466;BME280;62916;50.044;15.938;2023-03-14T11:59:08;97221.98;;;21.32;43.71
74466;BME280;62916;50.044;15.938;2023-03-14T12:01:51;97218.92;;;21.32;43.65
74466;BME280;62916;50.044;15.938;2023-03-14T12:04:38;97222.60;;;21.31;43.70
74466;BME280;62916;50.044;15.938;2023-03-14T12:07:19;97221.44;;;21.29;43.65
74466;BME280;62916;50.044;15.938;2023-03-14T12:09:51;97217.10;;;21.30;43.63
74466;BME280;62916;50.044;15.938;2023-03-14T12:12:25;97217.20;;;21.27;43.35
74466;BME280;62916;50.044;15.938;2023-03-14T12:14:59;97213.20;;;21.24;43.54
74466;BME280;62916;50.044;15.938;2023-03-14T12:17:36;97212.38;;;21.23;43.36
74466;BME280;62916;50.044;15.938;2023-03-14T12:20:18;97213.67;;;21.20;43.44
74466;BME280;62916;50.044;15.938;2023-03-14T12:22:52;97213.31;;;21.19;43.58
74466;BME280;62916;50.044;15.938;2023-03-14T12:25:25;97207.57;;;21.18;43.52
74466;BME280;62916;50.044;15.938;2023-03-14T12:28:20;97205.63;;;21.17;43.61
74466;BME280;62916;50.044;15.938;2023-03-14T12:30:51;97206.05;;;21.12;43.45
74466;BME280;62916;50.044;15.938;2023-03-14T12:33:31;97203.51;;;21.13;43.57
74466;BME280;62916;50.044;15.938;2023-03-14T12:39:40;97193.70;;;21.11;43.58
74466;BME280;62916;50.044;15.938;2023-03-14T12:42:15;97188.91;;;21.09;43.51
74466;BME280;62916;50.044;15.938;2023-03-14T12:45:15;97191.92;;;21.06;43.78
74466;BME280;62916;50.044;15.938;2023-03-14T12:48:09;97189.68;;;21.06;43.76
74466;BME280;62916;50.044;15.938;2023-03-14T12:50:45;97194.34;;;21.07;43.56
74466;BME280;62916;50.044;15.938;2023-03-14T12:53:58;97195.80;;;21.07;43.64
74466;BME280;62916;50.044;15.938;2023-03-14T12:57:03;97192.50;;;21.07;43.49
74466;BME280;62916;50.044;15.938;2023-03-14T12:59:36;97186.29;;;21.06;43.57
74466;BME280;62916;50.044;15.938;2023-03-14T13:02:27;97187.52;;;21.07;43.52
74466;BME280;62916;50.044;15.938;2023-03-14T13:05:11;97172.20;;;21.06;43.44
74466;BME280;62916;50.044;15.938;2023-03-14T13:08:04;97159.40;;;21.06;43.62
74466;BME280;62916;50.044;15.938;2023-03-14T13:10:44;97177.04;;;21.07;43.34
74466;BME280;62916;50.044;15.938;2023-03-14T13:13:21;97184.50;;;21.05;43.43
74466;BME280;62916;50.044;15.938;2023-03-14T13:15:56;97171.30;;;21.05;43.31
74466;BME280;62916;50.044;15.938;2023-03-14T13:18:33;97169.99;;;21.05;43.41
74466;BME280;62916;50.044;15.938;2023-03-14T13:21:07;97173.77;;;21.05;43.48
74466;BME280;62916;50.044;15.938;2023-03-14T13:23:43;97174.14;;;21.03;43.28
74466;BME280;62916;50.044;15.938;2023-03-14T13:26:25;97172.30;;;21.03;43.49